sensor_id;sensor_type;location;lat;lon;timestamp;P1;durP1;ratioP1;P2;durP2;ratioP2
6031;SDS011;3044;43.232;27.972;2023-11-21T00:00:13;0.83;;;0.60;;
6031;SDS011;3044;43.232;27.972;2023-11-21T00:02:41;0.80;;;0.50;;
6031;SDS011;3044;43.232;27.972;2023-11-21T00:05:10;0.90;;;0.60;;
6031;SDS011;3044;43.232;27.972;2023-11-21T00:07:39;1.10;;;0.60;;
6031;SDS011;3044;43.232;27.972;2023-11-21T00:10:07;1.97;;;1.00;;
6031;SDS011;3044;43.232;27.972;2023-11-21T00:12:35;0.90;;;0.60;;
6031;SDS011;3044;43.232;27.972;2023-11-21T00:15:07;0.80;;;0.50;;
6031;SDS011;3044;43.232;27.972;2023-11-21T00:17:36;0.90;;;0.80;;
6031;SDS011;3044;43.232;27.972;2023-11-21T00:20:04;0.90;;;0.70;;
6031;SDS011;3044;43.232;27.972;2023-11-21T00:22:34;2.40;;;1.10;;
6031;SDS011;3044;43.232;27.972;2023-11-21T00:25:02;2.90;;;0.90;;
6031;SDS011;3044;43.232;27.972;2023-11-21T00:27:29;0.80;;;0.50;;
6031;SDS011;3044;43.232;27.972;2023-11-21T00:29:57;0.80;;;0.60;;
6031;SDS011;3044;43.232;27.972;2023-11-21T00:32:24;1.30;;;0.87;;
6031;SDS011;3044;43.232;27.972;2023-11-21T00:34:51;1.00;;;0.73;;
6031;SDS011;3044;43.232;27.972;2023-11-21T00:37:19;0.90;;;0.73;;
6031;SDS011;3044;43.232;27.972;2023-11-21T00:39:48;0.90;;;0.80;;
6031;SDS011;3044;43.232;27.972;2023-11-21T00:42:15;0.80;;;0.40;;
6031;SDS011;3044;43.232;27.972;2023-11-21T00:44:42;9.73;;;1.37;;
6031;SDS011;3044;43.232;27.972;2023-11-21T00:47:09;1.00;;;0.80;;
6031;SDS011;3044;43.232;27.972;2023-11-21T00:49:37;1.47;;;1.23;;
6031;SDS011;3044;43.232;27.972;2023-11-21T00:52:05;0.80;;;0.50;;
6031;SDS011;3044;43.232;27.972;2023-11-21T00:54:33;0.80;;;0.60;;
6031;SDS011;3044;43.232;27.972;2023-11-21T00:57:01;0.93;;;0.83;;
6031;SDS011;3044;43.232;27.972;2023-11-21T00:59:29;0.80;;;0.40;;
6031;SDS011;3044;43.232;27.972;2023-11-21T01:01:56;2.20;;;0.70;;
6031;SDS011;3044;43.232;27.972;2023-11-21T01:04:25;0.80;;;0.40;;
6031;SDS011;3044;43.232;27.972;2023-11-21T01:06:53;1.17;;;1.07;;
6031;SDS011;3044;43.232;27.972;2023-11-21T01:09:20;0.80;;;0.60;;
6031;SDS011;3044;43.232;27.972;2023-11-21T01:11:47;0.80;;;0.50;;
6031;SDS011;3044;43.232;27.972;2023-11-21T01:14:16;0.90;;;0.67;;
6031;SDS011;3044;43.232;27.972;2023-11-21T01:16:43;0.93;;;0.83;;
6031;SDS011;3044;43.232;27.972;2023-11-21T01:19:10;8.00;;;0.70;;
6031;SDS011;3044;43.232;27.972;2023-11-21T01:21:37;0.90;;;0.77;;
6031;SDS011;3044;43.232;27.972;2023-11-21T01:24:05;0.80;;;0.50;;
6031;SDS011;3044;43.232;27.972;2023-11-21T01:26:32;1.10;;;1.00;;
6031;SDS011;3044;43.232;27.972;2023-11-21T01:29:00;0.80;;;0.60;;
6031;SDS011;3044;43.232;27.972;2023-11-21T01:31:28;0.90;;;0.60;;
6031;SDS011;3044;43.232;27.972;2023-11-21T01:33:55;1.30;;;1.03;;
6031;SDS011;3044;43.232;27.972;2023-11-21T01:36:22;0.90;;;0.60;;
6031;SDS011;3044;43.232;27.972;2023-11-21T01:38:49;0.80;;;0.53;;
6031;SDS011;3044;43.232;27.972;2023-11-21T01:41:16;2.30;;;1.13;;
6031;SDS011;3044;43.232;27.972;2023-11-21T01:43:43;0.80;;;0.60;;
6031;SDS011;3044;43.232;27.972;2023-11-21T01:46:10;0.80;;;0.60;;
6031;SDS011;3044;43.232;27.972;2023-11-21T01:48:39;0.80;;;0.60;;
6031;SDS011;3044;43.232;27.972;2023-11-21T01:51:07;1.23;;;0.70;;
6031;SDS011;3044;43.232;27.972;2023-11-21T01:53:34;0.80;;;0.50;;
6031;SDS011;3044;43.232;27.972;2023-11-21T01:56:02;0.90;;;0.50;;
6031;SDS011;3044;43.232;27.972;2023-11-21T01:58:30;0.90;;;0.60;;
6031;SDS011;3044;43.232;27.972;2023-11-21T02:00:58;1.67;;;1.33;;
6031;SDS011;3044;43.232;27.972;2023-11-21T02:03:26;1.23;;;1.03;;
6031;SDS011;3044;43.232;27.972;2023-11-21T02:05:55;0.83;;;0.57;;
6031;SDS011;3044;43.232;27.972;2023-11-21T02:08:22;0.90;;;0.57;;
6031;SDS011;3044;43.232;27.972;2023-11-21T02:10:49;1.00;;;0.90;;
6031;SDS011;3044;43.232;27.972;2023-11-21T02:13:16;0.87;;;0.73;;
6031;SDS011;3044;43.232;27.972;2023-11-21T02:15:43;0.90;;;0.80;;
6031;SDS011;3044;43.232;27.972;2023-11-21T02:18:10;0.90;;;0.70;;
6031;SDS011;3044;43.232;27.972;2023-11-21T02:20:38;0.80;;;0.50;;
6031;SDS011;3044;43.232;27.972;2023-11-21T02:23:08;0.90;;;0.70;;
6031;SDS011;3044;43.232;27.972;2023-11-21T02:25:35;0.80;;;0.50;;
6031;SDS011;3044;43.232;27.972;2023-11-21T02:28:03;4.40;;;1.00;;
6031;SDS011;3044;43.232;27.972;2023-11-21T02:30:32;0.80;;;0.50;;
6031;SDS011;3044;43.232;27.972;2023-11-21T02:32:59;3.67;;;1.27;;
6031;SDS011;3044;43.232;27.972;2023-11-21T02:35:27;1.00;;;0.60;;
6031;SDS011;3044;43.232;27.972;2023-11-21T02:37:56;2.13;;;1.13;;
6031;SDS011;3044;43.232;27.972;2023-11-21T02:40:24;2.10;;;1.90;;
6031;SDS011;3044;43.232;27.972;2023-11-21T02:42:52;0.87;;;0.60;;
6031;SDS011;3044;43.232;27.972;2023-11-21T02:45:20;0.90;;;0.50;;
6031;SDS011;3044;43.232;27.972;2023-11-21T02:47:49;1.00;;;0.90;;
6031;SDS011;3044;43.232;27.972;2023-11-21T02:50:18;0.80;;;0.50;;
6031;SDS011;3044;43.232;27.972;2023-11-21T02:52:45;0.90;;;0.60;;
6031;SDS011;3044;43.232;27.972;2023-11-21T02:55:12;1.93;;;1.73;;
6031;SDS011;3044;43.232;27.972;2023-11-21T02:57:41;0.83;;;0.63;;
6031;SDS011;3044;43.232;27.972;2023-11-21T03:00:08;1.17;;;1.07;;
6031;SDS011;3044;43.232;27.972;2023-11-21T03:02:38;3.93;;;1.43;;
6031;SDS011;3044;43.232;27.972;2023-11-21T03:05:05;0.80;;;0.50;;
6031;SDS011;3044;43.232;27.972;2023-11-21T03:07:34;1.10;;;0.90;;
6031;SDS011;3044;43.232;27.972;2023-11-21T03:10:01;1.40;;;1.30;;
6031;SDS011;3044;43.232;27.972;2023-11-21T03:12:29;2.60;;;1.90;;
6031;SDS011;3044;43.232;27.972;2023-11-21T03:14:58;0.80;;;0.50;;
6031;SDS011;3044;43.232;27.972;2023-11-21T03:17:25;0.90;;;0.77;;
6031;SDS011;3044;43.232;27.972;2023-11-21T03:19:52;0.80;;;0.50;;
6031;SDS011;3044;43.232;27.972;2023-11-21T03:22:19;0.80;;;0.50;;
6031;SDS011;3044;43.232;27.972;2023-11-21T03:24:47;0.80;;;0.50;;
6031;SDS011;3044;43.232;27.972;2023-11-21T03:27:14;3.53;;;1.50;;
6031;SDS011;3044;43.232;27.972;2023-11-21T03:29:41;1.20;;;0.80;;
6031;SDS011;3044;43.232;27.972;2023-11-21T03:32:10;0.80;;;0.50;;
6031;SDS011;3044;43.232;27.972;2023-11-21T03:34:42;0.80;;;0.50;;
6031;SDS011;3044;43.232;27.972;2023-11-21T03:37:20;0.80;;;0.50;;
6031;SDS011;3044;43.232;27.972;2023-11-21T03:39:47;0.80;;;0.60;;
6031;SDS011;3044;43.232;27.972;2023-11-21T03:42:14;0.80;;;0.50;;
6031;SDS011;3044;43.232;27.972;2023-11-21T03:44:42;0.80;;;0.50;;
6031;SDS011;3044;43.232;27.972;2023-11-21T03:47:11;0.80;;;0.60;;
6031;SDS011;3044;43.232;27.972;2023-11-21T03:49:38;0.80;;;0.50;;
6031;SDS011;3044;43.232;27.972;2023-11-21T03:52:05;1.20;;;1.10;;
6031;SDS011;3044;43.232;27.972;2023-11-21T03:54:33;1.93;;;0.80;;
6031;SDS011;3044;43.232;27.972;2023-11-21T03:57:01;0.80;;;0.50;;
6031;SDS011;3044;43.232;27.972;2023-11-21T03:59:28;0.80;;;0.67;;
6031;SDS011;3044;43.232;27.972;2023-11-21T04:01:55;0.80;;;0.60;;
6031;SDS011;3044;43.232;27.972;2023-11-21T04:04:24;0.80;;;0.50;;
6031;SDS011;3044;43.232;27.972;2023-11-21T04:06:51;0.80;;;0.60;;
6031;SDS011;3044;43.232;27.972;2023-11-21T04:09:19;0.80;;;0.60;;
6031;SDS011;3044;43.232;27.972;2023-11-21T04:11:49;1.43;;;1.00;;
6031;SDS011;3044;43.232;27.972;2023-11-21T04:14:16;0.80;;;0.50;;
6031;SDS011;3044;43.232;27.972;2023-11-21T04:16:43;0.80;;;0.50;;
6031;SDS011;3044;43.232;27.972;2023-11-21T04:19:10;0.80;;;0.60;;
6031;SDS011;3044;43.232;27.972;2023-11-21T04:21:41;2.80;;;0.60;;
6031;SDS011;3044;43.232;27.972;2023-11-21T04:24:08;0.90;;;0.60;;
6031;SDS011;3044;43.232;27.972;2023-11-21T04:26:36;9.03;;;2.73;;
6031;SDS011;3044;43.232;27.972;2023-11-21T04:29:03;2.33;;;1.00;;
6031;SDS011;3044;43.232;27.972;2023-11-21T04:31:31;0.80;;;0.50;;
6031;SDS011;3044;43.232;27.972;2023-11-21T04:33:58;0.80;;;0.50;;
6031;SDS011;3044;43.232;27.972;2023-11-21T04:36:25;1.20;;;0.67;;
6031;SDS011;3044;43.232;27.972;2023-11-21T04:38:54;1.40;;;1.10;;
6031;SDS011;3044;43.232;27.972;2023-11-21T04:41:21;2.13;;;1.10;;
6031;SDS011;3044;43.232;27.972;2023-11-21T04:43:48;0.80;;;0.50;;
6031;SDS011;3044;43.232;27.972;2023-11-21T04:46:15;1.30;;;1.07;;
6031;SDS011;3044;43.232;27.972;2023-11-21T04:48:42;1.30;;;0.73;;
6031;SDS011;3044;43.232;27.972;2023-11-21T04:51:10;1.27;;;0.70;;
6031;SDS011;3044;43.232;27.972;2023-11-21T04:53:38;0.80;;;0.40;;
6031;SDS011;3044;43.232;27.972;2023-11-21T04:56:07;0.80;;;0.60;;
6031;SDS011;3044;43.232;27.972;2023-11-21T04:58:34;0.80;;;0.50;;
6031;SDS011;3044;43.232;27.972;2023-11-21T05:01:01;0.80;;;0.60;;
6031;SDS011;3044;43.232;27.972;2023-11-21T05:03:29;0.80;;;0.40;;
6031;SDS011;3044;43.232;27.972;2023-11-21T05:05:56;0.90;;;0.70;;
6031;SDS011;3044;43.232;27.972;2023-11-21T05:08:25;0.80;;;0.40;;
6031;SDS011;3044;43.232;27.972;2023-11-21T05:10:52;0.80;;;0.50;;
6031;SDS011;3044;43.232;27.972;2023-11-21T05:13:21;0.80;;;0.40;;
6031;SDS011;3044;43.232;27.972;2023-11-21T05:15:52;0.90;;;0.53;;
6031;SDS011;3044;43.232;27.972;2023-11-21T05:18:20;1.20;;;0.80;;
6031;SDS011;3044;43.232;27.972;2023-11-21T05:20:47;0.80;;;0.40;;
6031;SDS011;3044;43.232;27.972;2023-11-21T05:23:15;1.13;;;0.80;;
6031;SDS011;3044;43.232;27.972;2023-11-21T05:25:42;1.03;;;0.90;;
6031;SDS011;3044;43.232;27.972;2023-11-21T05:28:11;0.80;;;0.40;;
6031;SDS011;3044;43.232;27.972;2023-11-21T05:30:40;0.80;;;0.60;;
6031;SDS011;3044;43.232;27.972;2023-11-21T05:33:07;0.80;;;0.50;;
6031;SDS011;3044;43.232;27.972;2023-11-21T05:35:34;0.80;;;0.57;;
6031;SDS011;3044;43.232;27.972;2023-11-21T05:38:02;0.80;;;0.60;;
6031;SDS011;3044;43.232;27.972;2023-11-21T05:40:30;0.80;;;0.50;;
6031;SDS011;3044;43.232;27.972;2023-11-21T05:42:58;0.90;;;0.63;;
6031;SDS011;3044;43.232;27.972;2023-11-21T05:45:25;0.90;;;0.60;;
6031;SDS011;3044;43.232;27.972;2023-11-21T05:47:55;0.80;;;0.40;;
6031;SDS011;3044;43.232;27.972;2023-11-21T05:50:22;0.80;;;0.50;;
6031;SDS011;3044;43.232;27.972;2023-11-21T05:52:50;0.80;;;0.40;;
6031;SDS011;3044;43.232;27.972;2023-11-21T05:55:17;0.90;;;0.60;;
6031;SDS011;3044;43.232;27.972;2023-11-21T05:57:46;0.80;;;0.50;;
6031;SDS011;3044;43.232;27.972;2023-11-21T06:00:14;1.37;;;0.80;;
6031;SDS011;3044;43.232;27.972;2023-11-21T06:02:45;0.80;;;0.50;;
6031;SDS011;3044;43.232;27.972;2023-11-21T06:05:14;2.13;;;0.97;;
6031;SDS011;3044;43.232;27.972;2023-11-21T06:07:41;4.60;;;0.80;;
6031;SDS011;3044;43.232;27.972;2023-11-21T06:10:08;1.03;;;0.70;;
6031;SDS011;3044;43.232;27.972;2023-11-21T06:12:38;0.90;;;0.60;;
6031;SDS011;3044;43.232;27.972;2023-11-21T06:15:08;0.90;;;0.60;;
6031;SDS011;3044;43.232;27.972;2023-11-21T06:17:38;1.23;;;1.10;;
6031;SDS011;3044;43.232;27.972;2023-11-21T06:20:07;0.80;;;0.50;;
6031;SDS011;3044;43.232;27.972;2023-11-21T06:22:38;0.80;;;0.53;;
6031;SDS011;3044;43.232;27.972;2023-11-21T06:25:06;0.90;;;0.60;;
6031;SDS011;3044;43.232;27.972;2023-11-21T06:27:34;0.80;;;0.50;;
6031;SDS011;3044;43.232;27.972;2023-11-21T06:30:04;1.10;;;0.50;;
6031;SDS011;3044;43.232;27.972;2023-11-21T06:32:34;0.97;;;0.87;;
6031;SDS011;3044;43.232;27.972;2023-11-21T06:35:02;1.40;;;0.70;;
6031;SDS011;3044;43.232;27.972;2023-11-21T06:37:30;0.80;;;0.40;;
6031;SDS011;3044;43.232;27.972;2023-11-21T06:39:59;0.80;;;0.50;;
6031;SDS011;3044;43.232;27.972;2023-11-21T06:42:29;1.30;;;0.97;;
6031;SDS011;3044;43.232;27.972;2023-11-21T06:44:56;0.80;;;0.50;;
6031;SDS011;3044;43.232;27.972;2023-11-21T06:47:24;0.87;;;0.60;;
6031;SDS011;3044;43.232;27.972;2023-11-21T06:49:51;0.80;;;0.50;;
6031;SDS011;3044;43.232;27.972;2023-11-21T06:52:19;0.90;;;0.60;;
6031;SDS011;3044;43.232;27.972;2023-11-21T06:54:47;0.80;;;0.50;;
6031;SDS011;3044;43.232;27.972;2023-11-21T06:57:16;0.80;;;0.43;;
6031;SDS011;3044;43.232;27.972;2023-11-21T06:59:43;0.93;;;0.80;;
6031;SDS011;3044;43.232;27.972;2023-11-21T07:02:11;0.80;;;0.50;;
6031;SDS011;3044;43.232;27.972;2023-11-21T07:04:38;1.20;;;1.10;;
6031;SDS011;3044;43.232;27.972;2023-11-21T07:07:05;0.80;;;0.50;;
6031;SDS011;3044;43.232;27.972;2023-11-21T07:09:33;0.87;;;0.67;;
6031;SDS011;3044;43.232;27.972;2023-11-21T07:12:00;0.80;;;0.50;;
6031;SDS011;3044;43.232;27.972;2023-11-21T07:14:30;0.80;;;0.60;;
6031;SDS011;3044;43.232;27.972;2023-11-21T07:16:57;0.90;;;0.67;;
6031;SDS011;3044;43.232;27.972;2023-11-21T07:19:24;1.53;;;1.43;;
6031;SDS011;3044;43.232;27.972;2023-11-21T07:21:52;0.80;;;0.60;;
6031;SDS011;3044;43.232;27.972;2023-11-21T07:24:19;1.00;;;0.77;;
6031;SDS011;3044;43.232;27.972;2023-11-21T07:26:46;0.80;;;0.60;;
6031;SDS011;3044;43.232;27.972;2023-11-21T07:29:13;1.90;;;1.30;;
6031;SDS011;3044;43.232;27.972;2023-11-21T07:31:42;0.90;;;0.50;;
6031;SDS011;3044;43.232;27.972;2023-11-21T07:34:09;0.80;;;0.40;;
6031;SDS011;3044;43.232;27.972;2023-11-21T07:36:37;0.80;;;0.40;;
6031;SDS011;3044;43.232;27.972;2023-11-21T07:39:04;2.90;;;0.80;;
6031;SDS011;3044;43.232;27.972;2023-11-21T07:41:32;0.90;;;0.70;;
6031;SDS011;3044;43.232;27.972;2023-11-21T07:43:59;2.03;;;1.37;;
6031;SDS011;3044;43.232;27.972;2023-11-21T07:46:26;0.80;;;0.40;;
6031;SDS011;3044;43.232;27.972;2023-11-21T07:48:55;0.80;;;0.50;;
6031;SDS011;3044;43.232;27.972;2023-11-21T07:51:22;0.90;;;0.43;;
6031;SDS011;3044;43.232;27.972;2023-11-21T07:53:49;1.10;;;0.50;;
6031;SDS011;3044;43.232;27.972;2023-11-21T07:56:17;0.80;;;0.40;;
6031;SDS011;3044;43.232;27.972;2023-11-21T07:58:44;0.87;;;0.50;;
6031;SDS011;3044;43.232;27.972;2023-11-21T08:01:11;1.10;;;0.90;;
6031;SDS011;3044;43.232;27.972;2023-11-21T08:03:38;0.90;;;0.60;;
6031;SDS011;3044;43.232;27.972;2023-11-21T08:06:07;0.80;;;0.43;;
6031;SDS011;3044;43.232;27.972;2023-11-21T08:08:34;1.00;;;0.60;;
6031;SDS011;3044;43.232;27.972;2023-11-21T08:11:02;1.50;;;1.40;;
6031;SDS011;3044;43.232;27.972;2023-11-21T08:13:30;0.90;;;0.67;;
6031;SDS011;3044;43.232;27.972;2023-11-21T08:15:57;1.23;;;0.70;;
6031;SDS011;3044;43.232;27.972;2023-11-21T08:18:28;1.30;;;0.83;;
6031;SDS011;3044;43.232;27.972;2023-11-21T08:20:56;1.57;;;1.43;;
6031;SDS011;3044;43.232;27.972;2023-11-21T08:23:24;1.33;;;0.87;;
6031;SDS011;3044;43.232;27.972;2023-11-21T08:25:52;1.00;;;0.73;;
6031;SDS011;3044;43.232;27.972;2023-11-21T08:28:20;5.90;;;0.93;;
6031;SDS011;3044;43.232;27.972;2023-11-21T08:30:48;0.80;;;0.50;;
6031;SDS011;3044;43.232;27.972;2023-11-21T08:33:15;0.90;;;0.60;;
6031;SDS011;3044;43.232;27.972;2023-11-21T08:35:43;1.67;;;1.37;;
6031;SDS011;3044;43.232;27.972;2023-11-21T08:38:11;3.87;;;1.63;;
6031;SDS011;3044;43.232;27.972;2023-11-21T08:40:39;1.00;;;0.83;;
6031;SDS011;3044;43.232;27.972;2023-11-21T08:43:06;2.20;;;1.90;;
6031;SDS011;3044;43.232;27.972;2023-11-21T08:45:34;1.50;;;1.10;;
6031;SDS011;3044;43.232;27.972;2023-11-21T08:48:01;0.80;;;0.40;;
6031;SDS011;3044;43.232;27.972;2023-11-21T08:50:29;1.57;;;1.10;;
6031;SDS011;3044;43.232;27.972;2023-11-21T08:52:56;0.90;;;0.60;;
6031;SDS011;3044;43.232;27.972;2023-11-21T08:55:23;2.10;;;1.10;;
6031;SDS011;3044;43.232;27.972;2023-11-21T08:57:52;1.23;;;1.13;;
6031;SDS011;3044;43.232;27.972;2023-11-21T09:00:19;1.10;;;0.83;;
6031;SDS011;3044;43.232;27.972;2023-11-21T09:02:47;1.63;;;0.90;;
6031;SDS011;3044;43.232;27.972;2023-11-21T09:05:14;1.20;;;1.03;;
6031;SDS011;3044;43.232;27.972;2023-11-21T09:07:42;1.27;;;1.17;;
6031;SDS011;3044;43.232;27.972;2023-11-21T09:10:11;1.10;;;0.70;;
6031;SDS011;3044;43.232;27.972;2023-11-21T09:12:38;1.00;;;0.60;;
6031;SDS011;3044;43.232;27.972;2023-11-21T09:15:07;0.90;;;0.73;;
6031;SDS011;3044;43.232;27.972;2023-11-21T09:17:36;1.10;;;0.50;;
6031;SDS011;3044;43.232;27.972;2023-11-21T09:20:05;0.80;;;0.50;;
6031;SDS011;3044;43.232;27.972;2023-11-21T09:22:35;0.90;;;0.80;;
6031;SDS011;3044;43.232;27.972;2023-11-21T09:25:02;0.80;;;0.50;;
6031;SDS011;3044;43.232;27.972;2023-11-21T09:27:31;0.97;;;0.60;;
6031;SDS011;3044;43.232;27.972;2023-11-21T09:29:58;1.00;;;0.67;;
6031;SDS011;3044;43.232;27.972;2023-11-21T09:32:27;0.80;;;0.53;;
6031;SDS011;3044;43.232;27.972;2023-11-21T09:34:55;0.90;;;0.70;;
6031;SDS011;3044;43.232;27.972;2023-11-21T09:37:23;0.80;;;0.43;;
6031;SDS011;3044;43.232;27.972;2023-11-21T09:39:52;0.80;;;0.53;;
6031;SDS011;3044;43.232;27.972;2023-11-21T09:42:22;1.33;;;0.90;;
6031;SDS011;3044;43.232;27.972;2023-11-21T09:44:56;0.83;;;0.50;;
6031;SDS011;3044;43.232;27.972;2023-11-21T09:47:31;1.10;;;0.50;;
6031;SDS011;3044;43.232;27.972;2023-11-21T09:50:02;0.80;;;0.37;;
6031;SDS011;3044;43.232;27.972;2023-11-21T09:52:33;1.10;;;0.80;;
6031;SDS011;3044;43.232;27.972;2023-11-21T09:55:13;1.10;;;0.70;;
6031;SDS011;3044;43.232;27.972;2023-11-21T09:57:44;0.90;;;0.70;;
6031;SDS011;3044;43.232;27.972;2023-11-21T10:00:14;1.10;;;1.00;;
6031;SDS011;3044;43.232;27.972;2023-11-21T10:02:44;0.80;;;0.60;;
6031;SDS011;3044;43.232;27.972;2023-11-21T10:05:12;1.30;;;1.03;;
6031;SDS011;3044;43.232;27.972;2023-11-21T10:07:40;0.90;;;0.40;;
6031;SDS011;3044;43.232;27.972;2023-11-21T10:10:10;0.80;;;0.43;;
6031;SDS011;3044;43.232;27.972;2023-11-21T10:12:37;0.80;;;0.50;;
6031;SDS011;3044;43.232;27.972;2023-11-21T10:15:07;1.10;;;0.70;;
6031;SDS011;3044;43.232;27.972;2023-11-21T10:17:37;0.80;;;0.50;;
6031;SDS011;3044;43.232;27.972;2023-11-21T10:20:11;1.67;;;0.67;;
6031;SDS011;3044;43.232;27.972;2023-11-21T10:22:38;0.80;;;0.50;;
6031;SDS011;3044;43.232;27.972;2023-11-21T10:25:07;0.90;;;0.80;;
6031;SDS011;3044;43.232;27.972;2023-11-21T10:27:35;0.90;;;0.80;;
6031;SDS011;3044;43.232;27.972;2023-11-21T10:30:04;1.27;;;0.83;;
6031;SDS011;3044;43.232;27.972;2023-11-21T10:32:33;1.30;;;1.00;;
6031;SDS011;3044;43.232;27.972;2023-11-21T10:35:00;0.90;;;0.60;;
6031;SDS011;3044;43.232;27.972;2023-11-21T10:37:33;1.00;;;0.63;;
6031;SDS011;3044;43.232;27.972;2023-11-21T10:40:00;0.80;;;0.40;;
6031;SDS011;3044;43.232;27.972;2023-11-21T10:42:27;0.90;;;0.73;;
6031;SDS011;3044;43.232;27.972;2023-11-21T10:44:55;1.13;;;0.90;;
6031;SDS011;3044;43.232;27.972;2023-11-21T10:47:22;0.80;;;0.60;;
6031;SDS011;3044;43.232;27.972;2023-11-21T10:49:49;0.90;;;0.60;;
6031;SDS011;3044;43.232;27.972;2023-11-21T10:52:18;0.80;;;0.40;;
6031;SDS011;3044;43.232;27.972;2023-11-21T10:54:47;0.90;;;0.60;;
6031;SDS011;3044;43.232;27.972;2023-11-21T10:57:16;0.83;;;0.50;;
6031;SDS011;3044;43.232;27.972;2023-11-21T10:59:48;1.30;;;1.13;;
6031;SDS011;3044;43.232;27.972;2023-11-21T11:02:23;0.80;;;0.40;;
6031;SDS011;3044;43.232;27.972;2023-11-21T11:04:53;1.23;;;0.57;;
6031;SDS011;3044;43.232;27.972;2023-11-21T11:07:21;0.87;;;0.50;;
6031;SDS011;3044;43.232;27.972;2023-11-21T11:09:55;1.10;;;0.80;;
6031;SDS011;3044;43.232;27.972;2023-11-21T11:12:23;0.80;;;0.40;;
6031;SDS011;3044;43.232;27.972;2023-11-21T11:14:50;0.80;;;0.50;;
6031;SDS011;3044;43.232;27.972;2023-11-21T11:17:19;0.90;;;0.60;;
6031;SDS011;3044;43.232;27.972;2023-11-21T11:19:46;1.00;;;0.90;;
6031;SDS011;3044;43.232;27.972;2023-11-21T11:22:18;1.43;;;0.50;;
6031;SDS011;3044;43.232;27.972;2023-11-21T11:27:50;3.63;;;1.37;;
6031;SDS011;3044;43.232;27.972;2023-11-21T11:30:26;0.80;;;0.50;;
6031;SDS011;3044;43.232;27.972;2023-11-21T11:33:05;1.00;;;0.73;;
6031;SDS011;3044;43.232;27.972;2023-11-21T11:35:38;0.90;;;0.60;;
6031;SDS011;3044;43.232;27.972;2023-11-21T11:38:14;0.80;;;0.40;;
6031;SDS011;3044;43.232;27.972;2023-11-21T11:40:45;0.80;;;0.40;;
6031;SDS011;3044;43.232;27.972;2023-11-21T11:43:13;1.17;;;1.07;;
6031;SDS011;3044;43.232;27.972;2023-11-21T11:45:51;0.90;;;0.50;;
6031;SDS011;3044;43.232;27.972;2023-11-21T11:48:19;0.90;;;0.47;;
6031;SDS011;3044;43.232;27.972;2023-11-21T11:51:01;0.90;;;0.50;;
6031;SDS011;3044;43.232;27.972;2023-11-21T11:53:33;1.00;;;0.50;;
6031;SDS011;3044;43.232;27.972;2023-11-21T11:59:00;2.20;;;0.90;;
6031;SDS011;3044;43.232;27.972;2023-11-21T12:01:29;0.80;;;0.40;;
6031;SDS011;3044;43.232;27.972;2023-11-21T12:06:56;0.97;;;0.80;;
6031;SDS011;3044;43.232;27.972;2023-11-21T12:09:28;1.30;;;1.03;;
6031;SDS011;3044;43.232;27.972;2023-11-21T12:11:58;6.10;;;2.00;;
6031;SDS011;3044;43.232;27.972;2023-11-21T12:14:26;0.87;;;0.67;;
6031;SDS011;3044;43.232;27.972;2023-11-21T12:16:54;1.20;;;0.80;;
6031;SDS011;3044;43.232;27.972;2023-11-21T12:19:21;1.33;;;1.23;;
6031;SDS011;3044;43.232;27.972;2023-11-21T12:21:49;2.10;;;1.63;;
6031;SDS011;3044;43.232;27.972;2023-11-21T12:24:17;1.53;;;0.97;;
6031;SDS011;3044;43.232;27.972;2023-11-21T12:26:44;1.97;;;1.43;;
6031;SDS011;3044;43.232;27.972;2023-11-21T12:29:13;0.90;;;0.60;;
6031;SDS011;3044;43.232;27.972;2023-11-21T12:31:42;1.53;;;0.90;;
6031;SDS011;3044;43.232;27.972;2023-11-21T12:34:09;1.77;;;1.40;;
6031;SDS011;3044;43.232;27.972;2023-11-21T12:36:37;1.10;;;0.70;;
6031;SDS011;3044;43.232;27.972;2023-11-21T12:39:05;2.20;;;1.70;;
6031;SDS011;3044;43.232;27.972;2023-11-21T12:41:34;1.07;;;0.83;;
6031;SDS011;3044;43.232;27.972;2023-11-21T12:44:01;1.90;;;1.17;;
6031;SDS011;3044;43.232;27.972;2023-11-21T12:46:30;1.27;;;1.00;;
6031;SDS011;3044;43.232;27.972;2023-11-21T12:48:59;0.80;;;0.40;;
6031;SDS011;3044;43.232;27.972;2023-11-21T12:51:26;0.90;;;0.80;;
6031;SDS011;3044;43.232;27.972;2023-11-21T12:53:55;1.13;;;0.73;;
6031;SDS011;3044;43.232;27.972;2023-11-21T12:56:23;1.07;;;0.90;;
6031;SDS011;3044;43.232;27.972;2023-11-21T12:58:53;1.00;;;0.90;;
6031;SDS011;3044;43.232;27.972;2023-11-21T13:01:25;1.10;;;0.77;;
6031;SDS011;3044;43.232;27.972;2023-11-21T13:03:56;0.83;;;0.53;;
6031;SDS011;3044;43.232;27.972;2023-11-21T13:06:25;0.90;;;0.60;;
6031;SDS011;3044;43.232;27.972;2023-11-21T13:08:52;1.00;;;0.70;;
6031;SDS011;3044;43.232;27.972;2023-11-21T13:11:22;1.17;;;0.77;;
6031;SDS011;3044;43.232;27.972;2023-11-21T13:13:51;0.90;;;0.50;;
6031;SDS011;3044;43.232;27.972;2023-11-21T13:16:19;1.83;;;0.93;;
6031;SDS011;3044;43.232;27.972;2023-11-21T13:18:47;0.80;;;0.40;;
6031;SDS011;3044;43.232;27.972;2023-11-21T13:21:15;0.80;;;0.47;;
6031;SDS011;3044;43.232;27.972;2023-11-21T13:23:43;1.47;;;0.63;;
6031;SDS011;3044;43.232;27.972;2023-11-21T13:26:11;0.80;;;0.50;;
6031;SDS011;3044;43.232;27.972;2023-11-21T13:28:40;0.90;;;0.60;;
6031;SDS011;3044;43.232;27.972;2023-11-21T13:31:11;0.90;;;0.80;;
6031;SDS011;3044;43.232;27.972;2023-11-21T13:33:51;0.90;;;0.63;;
6031;SDS011;3044;43.232;27.972;2023-11-21T13:36:22;2.60;;;1.17;;
6031;SDS011;3044;43.232;27.972;2023-11-21T13:38:50;0.90;;;0.50;;
6031;SDS011;3044;43.232;27.972;2023-11-21T13:41:18;1.07;;;0.67;;
6031;SDS011;3044;43.232;27.972;2023-11-21T13:43:53;0.90;;;0.63;;
6031;SDS011;3044;43.232;27.972;2023-11-21T13:46:28;4.03;;;1.27;;
6031;SDS011;3044;43.232;27.972;2023-11-21T13:49:02;0.90;;;0.57;;
6031;SDS011;3044;43.232;27.972;2023-11-21T13:51:35;0.90;;;0.77;;
6031;SDS011;3044;43.232;27.972;2023-11-21T13:54:06;0.93;;;0.53;;
6031;SDS011;3044;43.232;27.972;2023-11-21T13:56:35;1.00;;;0.87;;
6031;SDS011;3044;43.232;27.972;2023-11-21T13:59:02;1.83;;;0.90;;
6031;SDS011;3044;43.232;27.972;2023-11-21T14:01:38;2.50;;;0.87;;
6031;SDS011;3044;43.232;27.972;2023-11-21T14:04:19;0.90;;;0.60;;
6031;SDS011;3044;43.232;27.972;2023-11-21T14:07:02;1.10;;;0.77;;
6031;SDS011;3044;43.232;27.972;2023-11-21T14:09:45;4.83;;;0.70;;
6031;SDS011;3044;43.232;27.972;2023-11-21T14:12:14;1.07;;;0.97;;
6031;SDS011;3044;43.232;27.972;2023-11-21T14:14:42;1.73;;;1.27;;
6031;SDS011;3044;43.232;27.972;2023-11-21T14:17:10;0.80;;;0.50;;
6031;SDS011;3044;43.232;27.972;2023-11-21T14:19:37;0.80;;;0.50;;
6031;SDS011;3044;43.232;27.972;2023-11-21T14:22:09;0.80;;;0.40;;
6031;SDS011;3044;43.232;27.972;2023-11-21T14:24:37;2.23;;;1.33;;
6031;SDS011;3044;43.232;27.972;2023-11-21T14:27:09;8.97;;;4.43;;
6031;SDS011;3044;43.232;27.972;2023-11-21T14:29:36;21.70;;;8.07;;
6031;SDS011;3044;43.232;27.972;2023-11-21T14:32:08;13.40;;;7.47;;
6031;SDS011;3044;43.232;27.972;2023-11-21T14:34:36;14.60;;;6.50;;
6031;SDS011;3044;43.232;27.972;2023-11-21T14:37:03;4.70;;;3.10;;
6031;SDS011;3044;43.232;27.972;2023-11-21T14:39:32;2.80;;;2.40;;
6031;SDS011;3044;43.232;27.972;2023-11-21T14:42:05;2.00;;;1.13;;
6031;SDS011;3044;43.232;27.972;2023-11-21T14:44:33;1.83;;;1.17;;
6031;SDS011;3044;43.232;27.972;2023-11-21T14:47:04;0.87;;;0.60;;
6031;SDS011;3044;43.232;27.972;2023-11-21T14:49:39;1.33;;;1.03;;
6031;SDS011;3044;43.232;27.972;2023-11-21T14:52:17;0.90;;;0.70;;
6031;SDS011;3044;43.232;27.972;2023-11-21T14:54:59;1.63;;;0.87;;
6031;SDS011;3044;43.232;27.972;2023-11-21T14:57:40;1.10;;;0.70;;
6031;SDS011;3044;43.232;27.972;2023-11-21T15:00:11;1.43;;;1.33;;
6031;SDS011;3044;43.232;27.972;2023-11-21T15:02:56;0.90;;;0.60;;
6031;SDS011;3044;43.232;27.972;2023-11-21T15:05:23;0.80;;;0.57;;
6031;SDS011;3044;43.232;27.972;2023-11-21T15:07:52;1.33;;;1.13;;
6031;SDS011;3044;43.232;27.972;2023-11-21T15:10:23;1.37;;;0.70;;
6031;SDS011;3044;43.232;27.972;2023-11-21T15:13:03;0.90;;;0.70;;
6031;SDS011;3044;43.232;27.972;2023-11-21T15:15:30;1.90;;;1.40;;
6031;SDS011;3044;43.232;27.972;2023-11-21T15:17:59;1.30;;;0.93;;